Latest Weather Observations for Camden

IDN60801

Issued at 2:05 am EST Thursday 2 October 2014 (issued every 30 minutes, with the page automatically refreshed every 10 minutes)

About weather observations | Map of weather stations | Latest weather observations for NSW | Other Formats
Station Details ID: 068192 Name: CAMDEN AIRPORT AWS Lat: -34.04 Lon: 150.69 Height: 73.9 m
Data from the previous 72 hours. | See also: Recent months at Camden
Date/Time
EST
Temp
°C
App
Temp
°C
Dew
Point
Rel
Hum
%
Delta-T
°C
Wind Press
QNH
hPa
Press
MSL
hPa
Rain
since 9 am
mm
Dir
 
Spd
km/h
Gust
km/h
Spd
kts
Gust
kts
02/02:00am 5.5 4.3 4.6 94 0.4 NNW 0 0 0 0 1022.7 1022.6 0.0
02/01:30am 5.6 4.3 4.2 91 0.6 NNW 0 0 0 0 1022.6 1022.5 0.0
02/01:00am 5.9 4.7 4.4 90 0.6 CALM 0 0 0 0 1023.0 1022.9 0.0
02/12:30am 6.0 4.7 4.2 88 0.8 CALM 0 0 0 0 1023.4 1023.3 0.0
02/12:00am 6.7 5.6 4.9 88 0.8 NNW 0 0 0 0 1023.6 1023.5 0.0
 
Date/Time
EST
Temp
°C
App
Temp
°C
Dew
Point
Rel
Hum
%
Delta-T
°C
Wind Press
QNH
hPa
Press
MSL
hPa
Rain
since 9 am
mm
Dir
 
Spd
km/h
Gust
km/h
Spd
kts
Gust
kts
01/11:30pm 7.1 5.9 4.8 85 1.0 CALM 0 0 0 0 1023.4 1023.3 0.0
01/11:00pm 7.6 6.5 5.1 84 1.1 CALM 0 0 0 0 1023.4 1023.3 0.0
01/10:30pm 7.8 5.5 4.7 81 1.4 N 6 7 3 4 1023.6 1023.5 0.0
01/10:00pm 8.1 5.9 5.2 82 1.3 N 6 7 3 4 1023.5 1023.4 0.0
01/09:30pm 8.5 7.4 5.3 80 1.4 CALM 0 0 0 0 1023.4 1023.3 0.0
01/09:00pm 9.5 8.3 4.7 72 2.1 CALM 0 0 0 0 1023.1 1023.0 0.0
01/08:30pm 9.7 8.5 4.5 70 2.3 NNW 0 0 0 0 1022.9 1022.8 0.0
01/08:00pm 11.0 9.4 4.5 64 2.9 N 2 7 1 4 1022.6 1022.5 0.0
01/07:30pm 10.5 9.3 4.6 67 2.6 N 0 0 0 0 1022.3 1022.2 0.0
01/07:00pm 12.7 11.3 3.6 54 4.1 CALM 0 0 0 0 1021.9 1021.8 0.0
01/06:30pm 13.5 11.2 3.0 49 4.7 SE 4 6 2 3 1021.1 1021.0 0.0
01/06:00pm 13.9 9.9 2.8 47 4.9 ESE 13 17 7 9 1020.4 1020.3 0.0
01/05:30pm 15.4 10.7 2.9 43 5.7 SE 17 22 9 12 1020.4 1020.3 0.0
01/05:00pm 16.4 11.0 2.4 39 6.3 SE 20 28 11 15 1019.9 1019.8 0.0
01/04:30pm 17.4 12.1 1.8 35 7.0 SE 19 30 10 16 1019.1 1019.0 0.0
01/04:00pm 18.7 13.8 1.7 32 7.7 ESE 17 26 9 14 1018.6 1018.5 0.0
01/03:30pm 19.4 13.9 0.4 28 8.4 SE 19 24 10 13 1018.1 1017.9 0.0
01/03:00pm 20.8 14.6 -3.0 20 10.0 SW 20 28 11 15 1018.0 1017.8 0.0
01/02:30pm 20.6 14.5 -3.8 19 10.1 S 19 28 10 15 1018.0 1017.8 0.0
01/02:00pm 20.1 13.3 -4.9 18 10.0 SSW 22 32 12 17 1018.3 1018.2 0.0
01/01:30pm 20.0 12.8 -5.0 18 10.0 SSW 24 33 13 18 1018.3 1018.2 0.0
01/01:00pm 20.0 12.4 -5.8 17 10.1 S 26 33 14 18 1018.2 1018.0 0.0
01/12:30pm 19.8 12.5 -5.9 17 10.1 S 24 35 13 19 1018.3 1018.2 0.0
01/12:00pm 20.1 12.2 -4.9 18 10.0 SSW 28 43 15 23 1018.4 1018.3 0.0
01/11:30am 19.6 11.6 -5.3 18 9.9 SSW 28 41 15 22 1018.2 1018.0 0.0
01/11:00am 19.2 11.3 -5.0 19 9.6 SW 28 39 15 21 1018.3 1018.2 0.0
01/10:30am 18.4 10.4 -5.6 19 9.3 WSW 28 39 15 21 1018.3 1018.2 0.0
01/10:00am 17.3 8.4 -5.2 21 8.7 SW 33 46 18 25 1018.1 1017.9 0.0
01/09:30am 17.4 9.2 -3.9 23 8.5 SW 30 41 16 22 1018.3 1018.2 0.0
01/09:00am 16.2 7.5 -4.9 23 8.1 SW 32 48 17 26 1018.0 1017.9 0.0
01/08:30am 16.2 7.6 -3.8 25 7.9 WSW 32 48 17 26 1017.8 1017.7 0.0
01/08:03am 15.2 7.2 -2.7 29 7.2 WSW 30 50 16 27 1017.1 1017.0 0.0
01/08:00am 15.4 7.8 -2.1 30 7.1 WSW 28 43 15 23 1017.1 1017.0 0.0
01/07:35am 14.6 6.0 -2.3 31 6.8 WSW 33 57 18 31 1016.7 1016.6 0.0
01/07:30am 14.5 7.0 -1.6 33 6.6 WSW 28 43 15 23 1016.8 1016.7 0.0
01/07:00am 13.9 6.8 -0.9 36 6.1 SW 26 35 14 19 1016.5 1016.4 0.0
01/06:30am 13.4 7.5 -1.0 37 5.9 SW 20 35 11 19 1015.9 1015.8 0.0
01/06:00am 13.3 5.8 -1.1 37 5.9 WSW 28 50 15 27 1015.2 1015.2 0.0
01/05:30am 14.1 5.8 -1.9 33 6.4 WSW 32 50 17 27 1014.7 1014.7 0.0
01/05:00am 14.7 6.1 -2.7 30 6.9 SW 33 57 18 31 1013.9 1013.9 0.0
01/04:30am 15.7 7.7 -2.7 28 7.4 WSW 30 48 16 26 1013.0 1013.0 0.0
01/04:07am 16.5 8.3 -1.1 30 7.4 WSW 32 50 17 27 1012.3 1012.3 0.0
01/04:00am 16.6 8.8 -0.6 31 7.3 SW 30 44 16 24 1012.0 1012.0 0.0
01/03:30am 17.3 8.4 0.5 32 7.3 WSW 37 57 20 31 1011.6 1011.6 0.0
01/03:01am 17.6 9.6 3.9 40 6.4 WSW 35 54 19 29 1010.9 1010.9 0.0
01/03:00am 17.7 9.3 3.9 40 6.5 WSW 37 54 20 29 1010.8 1010.8 0.0
01/02:30am 18.1 9.0 5.7 44 6.1 WSW 43 63 23 34 1009.8 1009.8 0.0
01/02:00am 19.2 8.6 4.9 39 7.0 WSW 50 74 27 40 1008.9 1008.9 0.0
01/01:30am 22.5 13.0 1.5 25 9.8 WSW 41 65 22 35 1008.0 1007.9 0.0
01/01:00am 24.4 15.8 0.0 20 11.2 W 35 59 19 32 1007.0 1006.9 0.0
01/12:58am 24.4 16.3 0.0 20 11.2 W 32 59 17 32 1006.9 1006.8 0.0
01/12:30am 24.4 18.1 -0.7 19 11.4 W 22 37 12 20 1007.1 1007.0 0.0
01/12:00am 24.3 18.4 -0.8 19 11.4 W 20 26 11 14 1007.1 1007.0 0.0
 
Date/Time
EST
Temp
°C
App
Temp
°C
Dew
Point
Rel
Hum
%
Delta-T
°C
Wind Press
QNH
hPa
Press
MSL
hPa
Rain
since 9 am
mm
Dir
 
Spd
km/h
Gust
km/h
Spd
kts
Gust
kts
30/11:30pm 20.1 17.0 5.7 39 7.1 NW 11 17 6 9 1007.4 1007.3 0.0
30/11:00pm 20.2 18.5 5.8 39 7.2 WSW 4 11 2 6 1007.3 1007.2 0.0
30/10:30pm 19.2 17.1 6.7 44 6.3 N 7 11 4 6 1007.6 1007.5 0.0
30/10:00pm 17.3 14.4 8.2 55 4.7 NNE 13 20 7 11 1008.0 1007.9 0.0
30/09:30pm 17.5 15.2 7.5 52 5.1 S 9 15 5 8 1007.9 1007.8 0.0
30/09:00pm 21.9 19.8 5.8 35 8.1 WNW 6 11 3 6 1007.7 1007.6 0.0
30/08:30pm 22.3 19.4 4.8 32 8.7 WNW 9 13 5 7 1007.7 1007.6 0.0
30/08:00pm 24.4 20.4 4.7 28 9.9 N 15 17 8 9 1007.5 1007.4 0.0
30/07:30pm 24.9 20.5 4.6 27 10.2 N 17 32 9 17 1007.4 1007.3 0.0
30/07:00pm 26.7 21.6 3.9 23 11.5 N 20 33 11 18 1007.2 1007.1 0.0
30/06:30pm 26.3 21.4 4.1 24 11.1 NNW 19 22 10 12 1007.3 1007.2 0.0
30/06:00pm 28.3 22.7 3.2 20 12.6 NW 22 32 12 17 1007.2 1007.1 0.0
30/05:36pm 29.3 22.0 2.5 18 13.3 NW 30 48 16 26 1007.0 1006.9 0.0
30/05:30pm 29.5 22.2 2.7 18 13.4 NW 30 46 16 25 1006.8 1006.7 0.0
30/05:13pm 30.0 21.6 1.5 16 14.0 WNW 35 54 19 29 1007.0 1006.9 0.0
30/05:00pm 30.3 22.6 2.5 17 14.0 WNW 32 48 17 26 1007.1 1007.0 0.0
30/04:33pm 31.1 24.2 2.3 16 14.5 WNW 28 48 15 26 1007.1 1007.0 0.0
30/04:30pm 31.3 24.4 2.5 16 14.5 WNW 28 43 15 23 1007.1 1007.0 0.0
30/04:00pm 31.8 24.4 3.8 17 14.5 WNW 32 44 17 24 1007.0 1006.9 0.0
30/03:30pm 32.0 25.5 4.7 18 14.3 NW 28 48 15 26 1007.0 1006.9 0.0
30/03:00pm 32.5 24.6 4.3 17 14.8 NW 35 54 19 29 1007.1 1007.0 0.0
30/02:32pm 32.5 24.6 4.3 17 14.8 WNW 35 54 19 29 1007.5 1007.4 0.0
30/02:30pm 32.4 24.1 4.2 17 14.7 NW 37 54 20 29 1007.4 1007.3 0.0
30/02:00pm 32.4 23.2 3.4 16 15.0 NW 41 61 22 33 1008.0 1007.9 0.0
30/01:33pm 32.8 25.2 3.7 16 15.1 NW 33 56 18 30 1008.5 1008.5 0.0
30/01:30pm 32.9 25.6 4.6 17 14.9 NW 32 43 17 23 1008.5 1008.5 0.0
30/01:00pm 32.6 24.9 5.2 18 14.6 NW 35 54 19 29 1009.0 1009.0 0.0
30/12:30pm 32.3 24.0 4.2 17 14.7 NNW 37 52 20 28 1009.3 1009.3 0.0
30/12:04pm 32.1 24.7 4.8 18 14.4 NW 33 52 18 28 1009.8 1009.8 0.0
30/12:00pm 31.9 24.4 4.6 18 14.3 NW 33 50 18 27 1009.9 1009.9 0.0
30/11:41am 31.5 24.8 5.8 20 13.7 NNW 30 50 16 27 1010.2 1010.2 0.0
30/11:30am 29.7 28.2 9.3 28 11.4 N 7 15 4 8 1010.7 1010.7 0.0
30/11:00am 29.0 27.7 11.1 33 10.3 NNE 9 15 5 8 1011.4 1011.4 0.0
30/10:30am 26.7 25.7 12.4 41 8.3 ENE 9 13 5 7 1012.0 1012.0 0.0
30/10:00am 24.6 23.7 10.5 41 7.9 N 6 9 3 5 1012.7 1012.7 0.0
30/09:30am 22.5 23.3 13.6 57 5.2 N 2 7 1 4 1013.2 1013.2 0.0
30/09:00am 21.1 21.6 12.8 59 4.7 NNW 2 7 1 4 1013.5 1013.5 0.0
30/08:30am 18.0 17.3 11.3 65 3.7 W 6 9 3 5 1013.7 1013.7 0.0
30/08:00am 15.7 15.2 10.9 73 2.6 S 4 7 2 4 1013.7 1013.7 0.0
30/07:30am 13.5 13.6 10.3 81 1.7 CALM 0 0 0 0 1013.7 1013.7 0.0
30/07:00am 11.8 11.2 10.4 91 0.7 S 4 7 2 4 1013.6 1013.6 0.0
30/06:30am 10.0 10.0 9.7 98 0.2 CALM 0 0 0 0 1013.7 1013.7 0.0
30/06:08am 9.3 9.1 9.0 98 0.1 CALM 0 0 0 0 1013.6 1013.6 0.0
30/06:00am 9.0 8.7 8.5 97 0.2 CALM 0 0 0 0 1013.6 1013.6 0.0
30/05:58am 9.0 8.7 8.5 97 0.2 CALM 0 0 0 0 1013.5 1013.5 0.0
30/05:32am 9.3 9.0 8.8 97 0.2 CALM 0 0 0 0 1013.3 1013.3 0.0
30/05:30am 9.4 9.2 8.9 97 0.2 CALM 0 0 0 0 1013.2 1013.2 0.0
30/05:00am 9.5 9.3 8.9 96 0.3 CALM 0 0 0 0 1013.1 1013.1 0.0
30/04:57am 9.5 9.3 8.9 96 0.3 CALM 0 0 0 0 1013.1 1013.1 0.0
30/04:30am 9.6 9.3 8.7 94 0.4 CALM 0 0 0 0 1013.1 1013.1 0.0
30/04:00am 9.7 9.4 8.6 93 0.5 CALM 0 0 0 0 1013.0 1013.0 0.0
30/03:30am 9.9 9.5 8.2 89 0.8 CALM 0 0 0 0 1013.1 1013.1 0.0
30/03:00am 10.7 10.6 9.3 91 0.7 CALM 0 0 0 0 1013.4 1013.4 0.0
30/02:30am 10.8 10.7 9.4 91 0.7 CALM 0 0 0 0 1013.7 1013.7 0.0
30/02:00am 10.7 10.6 9.3 91 0.7 CALM 0 0 0 0 1013.9 1013.9 0.0
30/01:30am 11.4 11.4 9.7 89 0.9 CALM 0 0 0 0 1014.1 1014.1 0.0
30/01:00am 11.5 11.4 9.4 87 1.1 CALM 0 0 0 0 1014.4 1014.4 0.0
30/12:30am 12.3 11.8 9.3 82 1.5 S 2 6 1 3 1014.6 1014.6 0.0
30/12:00am 12.3 12.2 9.3 82 1.5 CALM 0 4 0 2 1014.7 1014.7 0.0
 
Date/Time
EST
Temp
°C
App
Temp
°C
Dew
Point
Rel
Hum
%
Delta-T
°C
Wind Press
QNH
hPa
Press
MSL
hPa
Rain
since 9 am
mm
Dir
 
Spd
km/h
Gust
km/h
Spd
kts
Gust
kts
29/11:30pm 12.3 10.7 8.6 78 1.8 S 7 9 4 5 1014.7 1014.7 0.0
29/11:00pm 13.2 13.1 9.6 79 1.8 CALM 0 0 0 0 1014.8 1014.8 0.0
29/10:30pm 14.0 13.9 9.4 74 2.4 CALM 0 0 0 0 1014.7 1014.7 0.0
29/10:00pm 15.4 15.6 10.6 73 2.5 CALM 0 0 0 0 1014.8 1014.8 0.0
29/09:30pm 16.3 15.5 9.5 64 3.5 S 4 7 2 4 1014.5 1014.5 0.0
29/09:00pm 16.5 16.1 9.7 64 3.6 S 2 6 1 3 1014.6 1014.6 0.0
29/08:30pm 18.2 17.2 9.0 55 4.8 ENE 4 9 2 5 1014.6 1014.6 0.0
29/08:00pm 19.0 17.9 8.6 51 5.4 E 4 6 2 3 1014.5 1014.5 0.0
29/07:30pm 21.6 20.4 6.3 37 7.8 NW 2 7 1 4 1014.1 1014.1 0.0
29/07:00pm 22.9 21.9 5.8 33 8.7 CALM 0 4 0 2 1013.7 1013.7 0.0
29/06:30pm 24.9 21.8 5.7 29 9.8 NW 11 13 6 7 1013.2 1013.2 0.0
29/06:00pm 25.6 22.6 5.8 28 10.2 NW 11 13 6 7 1012.8 1012.8 0.0
29/05:30pm 27.3 23.9 6.1 26 11.1 NW 13 19 7 10 1012.3 1012.3 0.0
29/05:00pm 28.8 24.1 5.0 22 12.3 NW 19 26 10 14 1011.8 1011.8 0.0
29/04:30pm 29.9 25.2 5.9 22 12.7 NW 20 28 11 15 1011.4 1011.4 0.0
29/04:00pm 30.6 25.3 5.1 20 13.4 NW 22 28 12 15 1011.2 1011.2 0.0
29/03:30pm 30.9 26.5 4.6 19 13.7 NNW 17 20 9 11 1011.0 1011.0 0.0
29/03:00pm 31.3 25.9 2.5 16 14.5 WSW 20 30 11 16 1010.9 1010.9 0.0
29/02:30pm 31.7 27.5 3.7 17 14.4 W 15 19 8 10 1010.9 1010.9 0.0
29/02:00pm 30.7 29.2 5.2 20 13.4 N 2 11 1 6 1011.3 1011.3 0.0
29/01:30pm 30.8 29.1 6.0 21 13.2 W 4 11 2 6 1011.7 1011.7 0.0
29/01:00pm 30.0 28.0 4.6 20 13.2 SE 4 11 2 6 1012.0 1012.0 0.0
29/12:30pm 30.2 28.0 6.1 22 12.8 WNW 7 19 4 10 1012.3 1012.3 0.0
29/12:00pm 29.3 27.2 6.7 24 12.1 S 7 11 4 6 1012.7 1012.7 0.0
29/11:30am 28.0 26.2 5.6 24 11.7 W 4 9 2 5 1013.2 1013.2 0.0
29/11:00am 27.7 26.0 7.5 28 10.9 NW 6 13 3 7 1013.5 1013.5 0.0
29/10:30am 26.5 24.8 9.8 35 9.3 N 9 13 5 7 1013.8 1013.8 0.0
29/10:00am 23.2 22.7 11.9 49 6.4 N 6 9 3 5 1014.0 1014.0 0.0
29/09:30am 20.8 21.1 10.9 53 5.4 CALM 0 0 0 0 1014.5 1014.5 0.0
29/09:00am 19.0 18.5 10.8 59 4.5 NE 4 7 2 4 1014.8 1014.8 0.0
29/08:30am 16.3 15.7 10.4 68 3.1 SSE 4 9 2 5 1014.8 1014.8 0.0
29/08:00am 14.1 13.3 11.1 82 1.6 SSE 6 9 3 5 1014.8 1014.8 0.0
29/07:30am 11.6 10.1 10.5 93 0.6 S 9 13 5 7 1014.8 1014.8 0.0
29/07:00am 9.9 9.5 9.8 99 0.1 S 2 6 1 3 1014.5 1014.5 0.0
29/06:30am 8.6 7.9 8.5 99 0.0 NNE 2 9 1 5 1014.4 1014.4 0.0
29/06:27am 8.3 7.9 8.2 99 0.0 CALM 0 0 0 0 1014.4 1014.4 0.0
29/06:14am 8.2 7.8 8.1 99 0.0 CALM 0 0 0 0 1014.2 1014.2 0.0
29/06:00am 7.4 6.8 7.3 99 0.0 CALM 0 0 0 0 1014.1 1014.1 0.0
29/05:59am 7.6 7.0 7.5 99 0.0 CALM 0 0 0 0 1014.1 1014.1 0.0
29/05:57am 7.7 7.1 7.6 99 0.0 CALM 0 0 0 0 1014.1 1014.1 0.0
29/05:55am 7.8 7.3 7.7 99 0.0 CALM 0 0 0 0 1014.1 1014.1 0.0
29/05:32am 7.7 7.1 7.6 99 0.0 CALM 0 6 0 3 1014.1 1014.1 0.0
29/05:30am 7.7 7.1 7.6 99 0.0 CALM 0 6 0 3 1014.1 1014.1 0.0
29/05:24am 7.6 7.0 7.5 99 0.0 CALM 0 7 0 4 1014.1 1014.1 0.0
29/05:17am 7.9 6.3 7.8 99 0.0 SSW 6 7 3 4 1014.0 1014.0 0.0
29/05:02am 8.0 7.5 7.9 99 0.0 CALM 0 0 0 0 1013.8 1013.8 0.0
29/05:00am 8.0 7.5 7.9 99 0.0 CALM 0 0 0 0 1013.8 1013.8 0.0
29/04:55am 7.9 7.4 7.8 99 0.0 CALM 0 0 0 0 1013.6 1013.6 0.0
29/04:50am 7.9 7.4 7.8 99 0.0 CALM 0 0 0 0 1013.7 1013.7 0.0
29/04:47am 7.9 7.4 7.8 99 0.0 CALM 0 0 0 0 1013.6 1013.6 0.0
29/04:30am 7.8 7.3 7.7 99 0.0 CALM 0 4 0 2 1013.6 1013.6 0.0
29/04:22am 7.9 6.6 7.8 99 0.0 S 4 7 2 4 1013.6 1013.6 0.0
29/04:00am 7.9 7.0 7.8 99 0.0 E 2 7 1 4 1013.6 1013.6 0.0
29/03:30am 8.4 7.3 8.3 99 0.0 N 4 7 2 4 1013.5 1013.5 0.0
29/03:27am 8.5 7.0 8.4 99 0.0 N 6 7 3 4 1013.6 1013.6 0.0
29/03:20am 8.5 7.4 8.4 99 0.0 N 4 7 2 4 1013.6 1013.6 0.0
29/03:00am 8.2 7.8 8.1 99 0.0 CALM 0 0 0 0 1013.9 1013.9 0.0
29/02:31am 8.4 8.0 8.3 99 0.0 CALM 0 0 0 0 1014.1 1014.1 0.0
29/02:30am 8.4 8.0 8.3 99 0.0 CALM 0 0 0 0 1014.1 1014.1 0.0
29/02:26am 9.0 8.8 8.9 99 0.0 CALM 0 0 0 0 1014.1 1014.1 0.0
29/02:09am 9.0 8.8 8.9 99 0.0 CALM 0 0 0 0 1014.5 1014.5 0.0

Other Formats:

Comma delimited format used in spreadsheet applications
http://www.bom.gov.au/fwo/IDN60801/IDN60801.94755.axf

JavaScript Object Notation format (JSON) in row-major order
http://www.bom.gov.au/fwo/IDN60801/IDN60801.94755.json